Weather at Moss Airport, Rygge

Public forecast

Using degrees Celsius for public forecast. Weather courtesy of forecast.io.

Current aviation weather report (METAR) for Moss Airport, Rygge

Retrieved 2021/03/01 23:20 UTC (59 minutes ago):

ENRY 012320Z AUTO 25006KT 9999NDV NCD 05/M01 Q1028

Aviation forecast (TAF) for Moss Airport, Rygge

Retrieved 2021-03-02 00:00 UTC (19 minutes ago):

TAF TAF ENRY 012300Z 0200/0224 VRB05KT CAVOK BECMG 0212/0214 19010KT BECMG 0217/0219 VRB03KT